sensor_id;sensor_type;location;lat;lon;timestamp;P1;durP1;ratioP1;P2;durP2;ratioP2
30307;SDS011;17114;52.314;8.910;2024-01-15T00:01:29;35.60;;;15.60;;
30307;SDS011;17114;52.314;8.910;2024-01-15T00:03:57;33.92;;;14.43;;
30307;SDS011;17114;52.314;8.910;2024-01-15T00:06:24;30.83;;;12.85;;
30307;SDS011;17114;52.314;8.910;2024-01-15T00:08:53;32.40;;;11.50;;
30307;SDS011;17114;52.314;8.910;2024-01-15T00:11:21;20.38;;;10.02;;
30307;SDS011;17114;52.314;8.910;2024-01-15T00:13:48;25.25;;;10.70;;
30307;SDS011;17114;52.314;8.910;2024-01-15T00:16:15;28.50;;;10.90;;
30307;SDS011;17114;52.314;8.910;2024-01-15T00:18:42;23.67;;;9.95;;
30307;SDS011;17114;52.314;8.910;2024-01-15T00:21:10;22.45;;;9.15;;
30307;SDS011;17114;52.314;8.910;2024-01-15T00:23:39;24.33;;;9.13;;
30307;SDS011;17114;52.314;8.910;2024-01-15T00:26:10;18.88;;;7.97;;
30307;SDS011;17114;52.314;8.910;2024-01-15T00:28:38;18.20;;;7.68;;
30307;SDS011;17114;52.314;8.910;2024-01-15T00:31:05;18.83;;;7.40;;
30307;SDS011;17114;52.314;8.910;2024-01-15T00:33:33;18.00;;;6.95;;
30307;SDS011;17114;52.314;8.910;2024-01-15T00:36:00;16.45;;;6.10;;
30307;SDS011;17114;52.314;8.910;2024-01-15T00:38:27;18.77;;;6.53;;
30307;SDS011;17114;52.314;8.910;2024-01-15T00:40:54;19.55;;;6.00;;
30307;SDS011;17114;52.314;8.910;2024-01-15T00:43:21;20.33;;;6.65;;
30307;SDS011;17114;52.314;8.910;2024-01-15T00:45:48;19.77;;;6.65;;
30307;SDS011;17114;52.314;8.910;2024-01-15T00:48:15;18.35;;;6.22;;
30307;SDS011;17114;52.314;8.910;2024-01-15T00:50:42;19.77;;;6.63;;
30307;SDS011;17114;52.314;8.910;2024-01-15T00:53:09;18.60;;;5.18;;
30307;SDS011;17114;52.314;8.910;2024-01-15T00:55:36;17.23;;;5.80;;
30307;SDS011;17114;52.314;8.910;2024-01-15T00:58:04;18.10;;;6.20;;
30307;SDS011;17114;52.314;8.910;2024-01-15T01:00:31;16.23;;;5.60;;
30307;SDS011;17114;52.314;8.910;2024-01-15T01:02:58;21.40;;;6.53;;
30307;SDS011;17114;52.314;8.910;2024-01-15T01:05:25;18.30;;;6.30;;
30307;SDS011;17114;52.314;8.910;2024-01-15T01:07:52;26.48;;;6.82;;
30307;SDS011;17114;52.314;8.910;2024-01-15T01:10:19;22.23;;;6.75;;
30307;SDS011;17114;52.314;8.910;2024-01-15T01:12:46;15.07;;;5.63;;
30307;SDS011;17114;52.314;8.910;2024-01-15T01:15:13;15.32;;;5.47;;
30307;SDS011;17114;52.314;8.910;2024-01-15T01:17:40;18.38;;;5.63;;
30307;SDS011;17114;52.314;8.910;2024-01-15T01:20:08;16.42;;;5.57;;
30307;SDS011;17114;52.314;8.910;2024-01-15T01:22:37;24.25;;;5.32;;
30307;SDS011;17114;52.314;8.910;2024-01-15T01:25:04;14.68;;;4.72;;
30307;SDS011;17114;52.314;8.910;2024-01-15T01:27:32;18.20;;;4.32;;
30307;SDS011;17114;52.314;8.910;2024-01-15T01:29:59;19.30;;;4.57;;
30307;SDS011;17114;52.314;8.910;2024-01-15T01:32:26;16.35;;;3.72;;
30307;SDS011;17114;52.314;8.910;2024-01-15T01:34:53;14.50;;;4.05;;
30307;SDS011;17114;52.314;8.910;2024-01-15T01:37:20;21.45;;;3.95;;
30307;SDS011;17114;52.314;8.910;2024-01-15T01:39:47;18.83;;;3.63;;
30307;SDS011;17114;52.314;8.910;2024-01-15T01:42:14;23.58;;;4.05;;
30307;SDS011;17114;52.314;8.910;2024-01-15T01:44:42;12.70;;;3.50;;
30307;SDS011;17114;52.314;8.910;2024-01-15T01:47:09;20.10;;;4.22;;
30307;SDS011;17114;52.314;8.910;2024-01-15T01:49:36;15.93;;;3.55;;
30307;SDS011;17114;52.314;8.910;2024-01-15T01:52:05;20.30;;;3.63;;
30307;SDS011;17114;52.314;8.910;2024-01-15T01:54:33;18.98;;;3.17;;
30307;SDS011;17114;52.314;8.910;2024-01-15T01:57:02;11.57;;;3.15;;
30307;SDS011;17114;52.314;8.910;2024-01-15T01:59:31;13.88;;;2.78;;
30307;SDS011;17114;52.314;8.910;2024-01-15T02:02:01;15.05;;;2.88;;
30307;SDS011;17114;52.314;8.910;2024-01-15T02:04:31;19.75;;;3.30;;
30307;SDS011;17114;52.314;8.910;2024-01-15T02:07:01;19.63;;;3.92;;
30307;SDS011;17114;52.314;8.910;2024-01-15T02:09:28;15.68;;;2.50;;
30307;SDS011;17114;52.314;8.910;2024-01-15T02:11:55;9.48;;;2.33;;
30307;SDS011;17114;52.314;8.910;2024-01-15T02:14:22;18.20;;;3.28;;
30307;SDS011;17114;52.314;8.910;2024-01-15T02:16:50;14.35;;;2.67;;
30307;SDS011;17114;52.314;8.910;2024-01-15T02:19:17;11.77;;;3.40;;
30307;SDS011;17114;52.314;8.910;2024-01-15T02:21:45;11.20;;;2.10;;
30307;SDS011;17114;52.314;8.910;2024-01-15T02:24:12;14.32;;;2.75;;
30307;SDS011;17114;52.314;8.910;2024-01-15T02:26:39;12.13;;;2.50;;
30307;SDS011;17114;52.314;8.910;2024-01-15T02:29:06;10.07;;;2.33;;
30307;SDS011;17114;52.314;8.910;2024-01-15T02:31:37;19.95;;;3.30;;
30307;SDS011;17114;52.314;8.910;2024-01-15T02:34:04;10.73;;;2.65;;
30307;SDS011;17114;52.314;8.910;2024-01-15T02:36:32;13.23;;;2.47;;
30307;SDS011;17114;52.314;8.910;2024-01-15T02:38:59;14.20;;;2.58;;
30307;SDS011;17114;52.314;8.910;2024-01-15T02:41:26;14.52;;;2.50;;
30307;SDS011;17114;52.314;8.910;2024-01-15T02:43:52;14.55;;;2.40;;
30307;SDS011;17114;52.314;8.910;2024-01-15T02:46:19;11.65;;;2.08;;
30307;SDS011;17114;52.314;8.910;2024-01-15T02:48:46;12.80;;;2.42;;
30307;SDS011;17114;52.314;8.910;2024-01-15T02:51:13;19.92;;;3.28;;
30307;SDS011;17114;52.314;8.910;2024-01-15T02:53:40;18.52;;;2.00;;
30307;SDS011;17114;52.314;8.910;2024-01-15T02:56:07;14.25;;;2.53;;
30307;SDS011;17114;52.314;8.910;2024-01-15T02:58:34;13.60;;;2.45;;
30307;SDS011;17114;52.314;8.910;2024-01-15T03:01:01;13.10;;;2.53;;
30307;SDS011;17114;52.314;8.910;2024-01-15T03:03:29;19.38;;;3.38;;
30307;SDS011;17114;52.314;8.910;2024-01-15T03:05:56;14.65;;;2.92;;
30307;SDS011;17114;52.314;8.910;2024-01-15T03:08:23;12.30;;;2.97;;
30307;SDS011;17114;52.314;8.910;2024-01-15T03:10:50;14.45;;;3.05;;
30307;SDS011;17114;52.314;8.910;2024-01-15T03:13:17;10.20;;;2.53;;
30307;SDS011;17114;52.314;8.910;2024-01-15T03:15:46;16.45;;;2.75;;
30307;SDS011;17114;52.314;8.910;2024-01-15T03:18:14;18.58;;;2.80;;
30307;SDS011;17114;52.314;8.910;2024-01-15T03:20:41;12.60;;;2.13;;
30307;SDS011;17114;52.314;8.910;2024-01-15T03:23:08;17.85;;;2.92;;
30307;SDS011;17114;52.314;8.910;2024-01-15T03:25:35;11.60;;;2.70;;
30307;SDS011;17114;52.314;8.910;2024-01-15T03:28:01;16.33;;;2.80;;
30307;SDS011;17114;52.314;8.910;2024-01-15T03:30:28;15.18;;;3.08;;
30307;SDS011;17114;52.314;8.910;2024-01-15T03:32:55;12.10;;;2.97;;
30307;SDS011;17114;52.314;8.910;2024-01-15T03:35:22;16.48;;;2.40;;
30307;SDS011;17114;52.314;8.910;2024-01-15T03:37:49;10.57;;;2.20;;
30307;SDS011;17114;52.314;8.910;2024-01-15T03:40:16;11.38;;;2.22;;
30307;SDS011;17114;52.314;8.910;2024-01-15T03:42:48;14.05;;;2.85;;
30307;SDS011;17114;52.314;8.910;2024-01-15T03:45:15;17.58;;;2.38;;
30307;SDS011;17114;52.314;8.910;2024-01-15T03:47:42;12.98;;;2.90;;
30307;SDS011;17114;52.314;8.910;2024-01-15T03:50:10;11.70;;;2.33;;
30307;SDS011;17114;52.314;8.910;2024-01-15T03:52:37;8.57;;;1.90;;
30307;SDS011;17114;52.314;8.910;2024-01-15T03:55:04;8.80;;;2.38;;
30307;SDS011;17114;52.314;8.910;2024-01-15T03:57:31;14.38;;;3.15;;
30307;SDS011;17114;52.314;8.910;2024-01-15T04:02:39;11.95;;;2.47;;
30307;SDS011;17114;52.314;8.910;2024-01-15T04:05:06;10.02;;;2.17;;
30307;SDS011;17114;52.314;8.910;2024-01-15T04:07:33;9.27;;;1.92;;
30307;SDS011;17114;52.314;8.910;2024-01-15T04:10:00;11.98;;;2.65;;
30307;SDS011;17114;52.314;8.910;2024-01-15T04:12:27;20.35;;;2.30;;
30307;SDS011;17114;52.314;8.910;2024-01-15T04:14:54;16.50;;;2.30;;
30307;SDS011;17114;52.314;8.910;2024-01-15T04:17:20;21.52;;;3.15;;
30307;SDS011;17114;52.314;8.910;2024-01-15T04:19:48;11.65;;;2.22;;
30307;SDS011;17114;52.314;8.910;2024-01-15T04:22:15;15.30;;;2.22;;
30307;SDS011;17114;52.314;8.910;2024-01-15T04:24:42;14.95;;;2.70;;
30307;SDS011;17114;52.314;8.910;2024-01-15T04:27:09;11.05;;;2.20;;
30307;SDS011;17114;52.314;8.910;2024-01-15T04:29:39;20.90;;;2.67;;
30307;SDS011;17114;52.314;8.910;2024-01-15T04:32:07;14.27;;;2.97;;
30307;SDS011;17114;52.314;8.910;2024-01-15T04:34:34;11.68;;;2.05;;
30307;SDS011;17114;52.314;8.910;2024-01-15T04:37:01;15.68;;;2.50;;
30307;SDS011;17114;52.314;8.910;2024-01-15T04:39:28;16.50;;;2.70;;
30307;SDS011;17114;52.314;8.910;2024-01-15T04:41:56;16.02;;;2.72;;
30307;SDS011;17114;52.314;8.910;2024-01-15T04:44:22;13.77;;;2.25;;
30307;SDS011;17114;52.314;8.910;2024-01-15T04:46:49;13.27;;;2.50;;
30307;SDS011;17114;52.314;8.910;2024-01-15T04:49:16;13.20;;;1.90;;
30307;SDS011;17114;52.314;8.910;2024-01-15T04:51:43;17.75;;;2.63;;
30307;SDS011;17114;52.314;8.910;2024-01-15T04:54:10;11.98;;;2.38;;
30307;SDS011;17114;52.314;8.910;2024-01-15T04:56:37;15.85;;;2.05;;
30307;SDS011;17114;52.314;8.910;2024-01-15T04:59:04;12.73;;;2.17;;
30307;SDS011;17114;52.314;8.910;2024-01-15T05:01:31;13.93;;;2.35;;
30307;SDS011;17114;52.314;8.910;2024-01-15T05:03:59;12.05;;;2.95;;
30307;SDS011;17114;52.314;8.910;2024-01-15T05:06:26;10.98;;;2.17;;
30307;SDS011;17114;52.314;8.910;2024-01-15T05:08:53;11.07;;;2.25;;
30307;SDS011;17114;52.314;8.910;2024-01-15T05:11:20;15.02;;;2.60;;
30307;SDS011;17114;52.314;8.910;2024-01-15T05:13:47;19.10;;;2.70;;
30307;SDS011;17114;52.314;8.910;2024-01-15T05:16:14;14.65;;;2.40;;
30307;SDS011;17114;52.314;8.910;2024-01-15T05:18:41;13.20;;;2.33;;
30307;SDS011;17114;52.314;8.910;2024-01-15T05:21:09;12.80;;;2.75;;
30307;SDS011;17114;52.314;8.910;2024-01-15T05:23:36;11.43;;;2.30;;
30307;SDS011;17114;52.314;8.910;2024-01-15T05:26:03;14.82;;;2.50;;
30307;SDS011;17114;52.314;8.910;2024-01-15T05:28:30;16.70;;;2.90;;
30307;SDS011;17114;52.314;8.910;2024-01-15T05:30:57;18.77;;;2.80;;
30307;SDS011;17114;52.314;8.910;2024-01-15T05:33:25;10.82;;;2.40;;
30307;SDS011;17114;52.314;8.910;2024-01-15T05:35:52;10.80;;;2.28;;
30307;SDS011;17114;52.314;8.910;2024-01-15T05:38:20;14.73;;;2.78;;
30307;SDS011;17114;52.314;8.910;2024-01-15T05:40:47;12.15;;;2.30;;
30307;SDS011;17114;52.314;8.910;2024-01-15T05:43:14;11.27;;;2.10;;
30307;SDS011;17114;52.314;8.910;2024-01-15T05:45:42;8.15;;;1.90;;
30307;SDS011;17114;52.314;8.910;2024-01-15T05:48:10;7.53;;;1.90;;
30307;SDS011;17114;52.314;8.910;2024-01-15T05:50:37;15.77;;;2.72;;
30307;SDS011;17114;52.314;8.910;2024-01-15T05:53:04;15.85;;;2.20;;
30307;SDS011;17114;52.314;8.910;2024-01-15T05:55:31;12.20;;;2.10;;
30307;SDS011;17114;52.314;8.910;2024-01-15T05:57:58;8.73;;;2.05;;
30307;SDS011;17114;52.314;8.910;2024-01-15T06:00:25;10.65;;;2.10;;
30307;SDS011;17114;52.314;8.910;2024-01-15T06:02:52;8.38;;;1.90;;
30307;SDS011;17114;52.314;8.910;2024-01-15T06:05:19;15.18;;;2.25;;
30307;SDS011;17114;52.314;8.910;2024-01-15T06:07:46;18.17;;;2.53;;
30307;SDS011;17114;52.314;8.910;2024-01-15T06:10:13;9.52;;;2.55;;
30307;SDS011;17114;52.314;8.910;2024-01-15T06:12:40;9.75;;;3.00;;
30307;SDS011;17114;52.314;8.910;2024-01-15T06:15:09;8.98;;;2.20;;
30307;SDS011;17114;52.314;8.910;2024-01-15T06:17:36;9.27;;;2.58;;
30307;SDS011;17114;52.314;8.910;2024-01-15T06:20:04;9.68;;;2.45;;
30307;SDS011;17114;52.314;8.910;2024-01-15T06:22:31;13.52;;;2.47;;
30307;SDS011;17114;52.314;8.910;2024-01-15T06:24:58;13.27;;;2.45;;
30307;SDS011;17114;52.314;8.910;2024-01-15T06:27:25;10.35;;;2.72;;
30307;SDS011;17114;52.314;8.910;2024-01-15T06:29:52;12.73;;;2.90;;
30307;SDS011;17114;52.314;8.910;2024-01-15T06:32:19;8.20;;;3.13;;
30307;SDS011;17114;52.314;8.910;2024-01-15T06:34:46;11.82;;;3.30;;
30307;SDS011;17114;52.314;8.910;2024-01-15T06:37:16;9.57;;;2.05;;
30307;SDS011;17114;52.314;8.910;2024-01-15T06:39:45;14.50;;;2.60;;
30307;SDS011;17114;52.314;8.910;2024-01-15T06:42:12;7.93;;;2.35;;
30307;SDS011;17114;52.314;8.910;2024-01-15T06:44:39;12.38;;;2.17;;
30307;SDS011;17114;52.314;8.910;2024-01-15T06:47:06;14.15;;;2.72;;
30307;SDS011;17114;52.314;8.910;2024-01-15T06:49:33;8.32;;;2.20;;
30307;SDS011;17114;52.314;8.910;2024-01-15T06:52:00;11.38;;;2.10;;
30307;SDS011;17114;52.314;8.910;2024-01-15T06:54:27;13.13;;;3.13;;
30307;SDS011;17114;52.314;8.910;2024-01-15T06:56:54;14.32;;;2.83;;
30307;SDS011;17114;52.314;8.910;2024-01-15T06:59:21;9.13;;;2.22;;
30307;SDS011;17114;52.314;8.910;2024-01-15T07:01:48;7.63;;;2.50;;
30307;SDS011;17114;52.314;8.910;2024-01-15T07:04:15;8.88;;;2.28;;
30307;SDS011;17114;52.314;8.910;2024-01-15T07:06:42;10.35;;;2.17;;
30307;SDS011;17114;52.314;8.910;2024-01-15T07:09:09;9.25;;;2.78;;
30307;SDS011;17114;52.314;8.910;2024-01-15T07:11:37;14.50;;;2.70;;
30307;SDS011;17114;52.314;8.910;2024-01-15T07:14:04;13.48;;;3.13;;
30307;SDS011;17114;52.314;8.910;2024-01-15T07:16:31;10.88;;;3.65;;
30307;SDS011;17114;52.314;8.910;2024-01-15T07:19:04;9.15;;;3.28;;
30307;SDS011;17114;52.314;8.910;2024-01-15T07:21:31;11.25;;;3.55;;
30307;SDS011;17114;52.314;8.910;2024-01-15T07:23:58;13.05;;;3.45;;
30307;SDS011;17114;52.314;8.910;2024-01-15T07:26:25;6.82;;;2.55;;
30307;SDS011;17114;52.314;8.910;2024-01-15T07:28:52;9.80;;;2.58;;
30307;SDS011;17114;52.314;8.910;2024-01-15T07:31:19;11.43;;;2.92;;
30307;SDS011;17114;52.314;8.910;2024-01-15T07:33:46;11.95;;;3.00;;
30307;SDS011;17114;52.314;8.910;2024-01-15T07:36:13;7.18;;;2.33;;
30307;SDS011;17114;52.314;8.910;2024-01-15T07:38:41;8.25;;;2.03;;
30307;SDS011;17114;52.314;8.910;2024-01-15T07:41:08;12.68;;;2.50;;
30307;SDS011;17114;52.314;8.910;2024-01-15T07:43:35;12.25;;;2.28;;
30307;SDS011;17114;52.314;8.910;2024-01-15T07:46:01;11.02;;;2.40;;
30307;SDS011;17114;52.314;8.910;2024-01-15T07:48:29;12.30;;;2.42;;
30307;SDS011;17114;52.314;8.910;2024-01-15T07:50:56;7.65;;;2.42;;
30307;SDS011;17114;52.314;8.910;2024-01-15T07:53:23;12.63;;;2.97;;
30307;SDS011;17114;52.314;8.910;2024-01-15T07:55:50;11.35;;;2.65;;
30307;SDS011;17114;52.314;8.910;2024-01-15T07:58:17;11.57;;;2.55;;
30307;SDS011;17114;52.314;8.910;2024-01-15T08:00:44;11.43;;;2.50;;
30307;SDS011;17114;52.314;8.910;2024-01-15T08:03:11;10.68;;;2.53;;
30307;SDS011;17114;52.314;8.910;2024-01-15T08:05:39;7.63;;;2.75;;
30307;SDS011;17114;52.314;8.910;2024-01-15T08:08:06;18.45;;;3.00;;
30307;SDS011;17114;52.314;8.910;2024-01-15T08:10:33;8.85;;;2.80;;
30307;SDS011;17114;52.314;8.910;2024-01-15T08:13:00;8.05;;;2.72;;
30307;SDS011;17114;52.314;8.910;2024-01-15T08:15:27;9.43;;;2.67;;
30307;SDS011;17114;52.314;8.910;2024-01-15T08:17:57;7.72;;;2.58;;
30307;SDS011;17114;52.314;8.910;2024-01-15T08:20:25;14.00;;;3.22;;
30307;SDS011;17114;52.314;8.910;2024-01-15T08:22:52;8.15;;;2.85;;
30307;SDS011;17114;52.314;8.910;2024-01-15T08:25:19;11.98;;;3.17;;
30307;SDS011;17114;52.314;8.910;2024-01-15T08:27:46;11.35;;;3.45;;
30307;SDS011;17114;52.314;8.910;2024-01-15T08:30:13;16.15;;;3.20;;
30307;SDS011;17114;52.314;8.910;2024-01-15T08:32:40;12.32;;;3.40;;
30307;SDS011;17114;52.314;8.910;2024-01-15T08:35:09;10.27;;;2.60;;
30307;SDS011;17114;52.314;8.910;2024-01-15T08:37:37;15.30;;;2.75;;
30307;SDS011;17114;52.314;8.910;2024-01-15T08:40:05;11.68;;;3.30;;
30307;SDS011;17114;52.314;8.910;2024-01-15T08:42:32;13.88;;;3.40;;
30307;SDS011;17114;52.314;8.910;2024-01-15T08:44:59;13.48;;;2.75;;
30307;SDS011;17114;52.314;8.910;2024-01-15T08:47:26;15.90;;;3.10;;
30307;SDS011;17114;52.314;8.910;2024-01-15T08:49:53;11.32;;;2.50;;
30307;SDS011;17114;52.314;8.910;2024-01-15T08:52:20;8.45;;;2.58;;
30307;SDS011;17114;52.314;8.910;2024-01-15T08:54:47;15.13;;;2.83;;
30307;SDS011;17114;52.314;8.910;2024-01-15T08:57:14;10.20;;;3.40;;
30307;SDS011;17114;52.314;8.910;2024-01-15T08:59:41;10.77;;;3.45;;
30307;SDS011;17114;52.314;8.910;2024-01-15T09:02:08;14.88;;;4.40;;
30307;SDS011;17114;52.314;8.910;2024-01-15T09:04:35;20.48;;;4.45;;
30307;SDS011;17114;52.314;8.910;2024-01-15T09:07:02;17.38;;;5.68;;
30307;SDS011;17114;52.314;8.910;2024-01-15T09:09:29;15.98;;;4.47;;
30307;SDS011;17114;52.314;8.910;2024-01-15T09:11:56;13.98;;;4.95;;
30307;SDS011;17114;52.314;8.910;2024-01-15T09:14:24;15.85;;;5.40;;
30307;SDS011;17114;52.314;8.910;2024-01-15T09:17:03;14.13;;;5.00;;
30307;SDS011;17114;52.314;8.910;2024-01-15T09:19:31;21.70;;;5.75;;
30307;SDS011;17114;52.314;8.910;2024-01-15T09:21:59;9.20;;;4.25;;
30307;SDS011;17114;52.314;8.910;2024-01-15T09:24:26;9.05;;;4.13;;
30307;SDS011;17114;52.314;8.910;2024-01-15T09:26:54;11.07;;;3.97;;
30307;SDS011;17114;52.314;8.910;2024-01-15T09:29:21;9.40;;;3.47;;
30307;SDS011;17114;52.314;8.910;2024-01-15T09:31:50;10.00;;;3.20;;
30307;SDS011;17114;52.314;8.910;2024-01-15T09:34:18;11.13;;;3.10;;
30307;SDS011;17114;52.314;8.910;2024-01-15T09:36:45;7.80;;;3.22;;
30307;SDS011;17114;52.314;8.910;2024-01-15T09:39:12;11.40;;;3.00;;
30307;SDS011;17114;52.314;8.910;2024-01-15T09:41:39;5.50;;;2.65;;
30307;SDS011;17114;52.314;8.910;2024-01-15T09:44:06;12.80;;;3.30;;
30307;SDS011;17114;52.314;8.910;2024-01-15T09:46:34;8.93;;;3.17;;
30307;SDS011;17114;52.314;8.910;2024-01-15T09:49:01;11.10;;;3.10;;
30307;SDS011;17114;52.314;8.910;2024-01-15T09:51:31;5.78;;;2.85;;
30307;SDS011;17114;52.314;8.910;2024-01-15T09:53:59;5.60;;;2.33;;
30307;SDS011;17114;52.314;8.910;2024-01-15T09:56:26;5.85;;;2.03;;
30307;SDS011;17114;52.314;8.910;2024-01-15T09:58:53;7.93;;;2.63;;
30307;SDS011;17114;52.314;8.910;2024-01-15T10:01:20;7.10;;;2.40;;
30307;SDS011;17114;52.314;8.910;2024-01-15T10:03:49;9.23;;;2.53;;
30307;SDS011;17114;52.314;8.910;2024-01-15T10:06:17;5.00;;;2.00;;
30307;SDS011;17114;52.314;8.910;2024-01-15T10:08:49;7.22;;;2.17;;
30307;SDS011;17114;52.314;8.910;2024-01-15T10:11:17;8.90;;;2.42;;
30307;SDS011;17114;52.314;8.910;2024-01-15T10:13:44;4.53;;;2.30;;
30307;SDS011;17114;52.314;8.910;2024-01-15T10:16:12;10.82;;;2.88;;
30307;SDS011;17114;52.314;8.910;2024-01-15T10:18:39;10.63;;;2.53;;
30307;SDS011;17114;52.314;8.910;2024-01-15T10:21:07;10.07;;;2.55;;
30307;SDS011;17114;52.314;8.910;2024-01-15T10:23:34;12.10;;;2.92;;
30307;SDS011;17114;52.314;8.910;2024-01-15T10:26:05;9.20;;;2.78;;
30307;SDS011;17114;52.314;8.910;2024-01-15T10:28:32;17.27;;;3.15;;
30307;SDS011;17114;52.314;8.910;2024-01-15T10:30:59;12.65;;;2.50;;
30307;SDS011;17114;52.314;8.910;2024-01-15T10:33:27;14.18;;;3.60;;
30307;SDS011;17114;52.314;8.910;2024-01-15T10:35:55;21.67;;;3.88;;
30307;SDS011;17114;52.314;8.910;2024-01-15T10:38:23;16.80;;;3.00;;
30307;SDS011;17114;52.314;8.910;2024-01-15T10:40:54;19.00;;;3.47;;
30307;SDS011;17114;52.314;8.910;2024-01-15T10:43:22;8.90;;;2.97;;
30307;SDS011;17114;52.314;8.910;2024-01-15T10:45:54;6.40;;;2.63;;
30307;SDS011;17114;52.314;8.910;2024-01-15T10:48:21;9.68;;;2.85;;
30307;SDS011;17114;52.314;8.910;2024-01-15T10:50:49;7.93;;;2.97;;
30307;SDS011;17114;52.314;8.910;2024-01-15T10:53:16;8.80;;;2.63;;
30307;SDS011;17114;52.314;8.910;2024-01-15T10:55:44;15.93;;;2.95;;
30307;SDS011;17114;52.314;8.910;2024-01-15T10:58:15;12.38;;;3.58;;
30307;SDS011;17114;52.314;8.910;2024-01-15T11:00:43;12.45;;;2.80;;
30307;SDS011;17114;52.314;8.910;2024-01-15T11:03:11;10.60;;;2.58;;
30307;SDS011;17114;52.314;8.910;2024-01-15T11:05:39;15.07;;;3.05;;
30307;SDS011;17114;52.314;8.910;2024-01-15T11:08:08;18.58;;;3.85;;
30307;SDS011;17114;52.314;8.910;2024-01-15T11:13:09;13.48;;;2.22;;
30307;SDS011;17114;52.314;8.910;2024-01-15T11:18:28;13.68;;;2.33;;
30307;SDS011;17114;52.314;8.910;2024-01-15T11:23:45;10.98;;;2.33;;
30307;SDS011;17114;52.314;8.910;2024-01-15T11:29:10;10.73;;;2.75;;
30307;SDS011;17114;52.314;8.910;2024-01-15T11:32:03;11.25;;;2.58;;
30307;SDS011;17114;52.314;8.910;2024-01-15T11:34:50;10.80;;;2.20;;
30307;SDS011;17114;52.314;8.910;2024-01-15T11:40:20;13.40;;;2.50;;
30307;SDS011;17114;52.314;8.910;2024-01-15T11:42:48;9.25;;;2.30;;
30307;SDS011;17114;52.314;8.910;2024-01-15T11:45:18;10.52;;;2.40;;
30307;SDS011;17114;52.314;8.910;2024-01-15T11:50:18;8.02;;;1.90;;
30307;SDS011;17114;52.314;8.910;2024-01-15T11:52:51;10.70;;;2.60;;
30307;SDS011;17114;52.314;8.910;2024-01-15T11:55:36;8.75;;;2.70;;
30307;SDS011;17114;52.314;8.910;2024-01-15T12:00:47;11.85;;;2.30;;
30307;SDS011;17114;52.314;8.910;2024-01-15T12:03:16;17.08;;;2.88;;
30307;SDS011;17114;52.314;8.910;2024-01-15T12:05:43;10.43;;;3.00;;
30307;SDS011;17114;52.314;8.910;2024-01-15T12:08:10;12.63;;;2.25;;
30307;SDS011;17114;52.314;8.910;2024-01-15T12:10:38;14.75;;;2.30;;
30307;SDS011;17114;52.314;8.910;2024-01-15T12:13:11;7.53;;;1.80;;
30307;SDS011;17114;52.314;8.910;2024-01-15T12:15:43;12.20;;;2.20;;
30307;SDS011;17114;52.314;8.910;2024-01-15T12:18:13;6.82;;;1.83;;
30307;SDS011;17114;52.314;8.910;2024-01-15T12:20:41;10.02;;;1.95;;
30307;SDS011;17114;52.314;8.910;2024-01-15T12:23:10;13.48;;;2.85;;
30307;SDS011;17114;52.314;8.910;2024-01-15T12:25:38;18.83;;;3.03;;
30307;SDS011;17114;52.314;8.910;2024-01-15T12:28:06;8.98;;;2.10;;
30307;SDS011;17114;52.314;8.910;2024-01-15T12:30:33;12.07;;;2.17;;
30307;SDS011;17114;52.314;8.910;2024-01-15T12:33:04;7.25;;;2.05;;
30307;SDS011;17114;52.314;8.910;2024-01-15T12:35:33;10.52;;;2.15;;
30307;SDS011;17114;52.314;8.910;2024-01-15T12:38:00;9.07;;;2.13;;
30307;SDS011;17114;52.314;8.910;2024-01-15T12:40:32;7.80;;;2.50;;
30307;SDS011;17114;52.314;8.910;2024-01-15T12:43:01;9.32;;;1.85;;
30307;SDS011;17114;52.314;8.910;2024-01-15T12:45:29;8.23;;;1.80;;
30307;SDS011;17114;52.314;8.910;2024-01-15T12:47:56;9.07;;;2.42;;
30307;SDS011;17114;52.314;8.910;2024-01-15T12:50:24;8.32;;;1.80;;
30307;SDS011;17114;52.314;8.910;2024-01-15T12:52:52;5.47;;;1.60;;
30307;SDS011;17114;52.314;8.910;2024-01-15T12:55:19;8.88;;;2.00;;
30307;SDS011;17114;52.314;8.910;2024-01-15T12:57:46;9.23;;;2.60;;
30307;SDS011;17114;52.314;8.910;2024-01-15T13:00:13;10.50;;;2.97;;
30307;SDS011;17114;52.314;8.910;2024-01-15T13:02:41;11.70;;;3.17;;
30307;SDS011;17114;52.314;8.910;2024-01-15T13:05:10;8.43;;;2.28;;
30307;SDS011;17114;52.314;8.910;2024-01-15T13:07:39;7.00;;;2.38;;
30307;SDS011;17114;52.314;8.910;2024-01-15T13:10:07;10.55;;;2.47;;
30307;SDS011;17114;52.314;8.910;2024-01-15T13:12:36;9.18;;;2.45;;
30307;SDS011;17114;52.314;8.910;2024-01-15T13:15:05;8.88;;;2.60;;
30307;SDS011;17114;52.314;8.910;2024-01-15T13:17:34;7.03;;;1.92;;
30307;SDS011;17114;52.314;8.910;2024-01-15T13:20:01;7.28;;;2.50;;
30307;SDS011;17114;52.314;8.910;2024-01-15T13:22:29;13.57;;;2.70;;
30307;SDS011;17114;52.314;8.910;2024-01-15T13:24:58;9.88;;;2.50;;
30307;SDS011;17114;52.314;8.910;2024-01-15T13:27:26;9.52;;;2.55;;
30307;SDS011;17114;52.314;8.910;2024-01-15T13:29:53;9.95;;;2.97;;
30307;SDS011;17114;52.314;8.910;2024-01-15T13:32:29;7.53;;;2.83;;
30307;SDS011;17114;52.314;8.910;2024-01-15T13:34:56;9.98;;;2.28;;
30307;SDS011;17114;52.314;8.910;2024-01-15T13:37:24;9.40;;;2.92;;
30307;SDS011;17114;52.314;8.910;2024-01-15T13:39:51;17.15;;;2.63;;
30307;SDS011;17114;52.314;8.910;2024-01-15T13:42:20;6.22;;;1.95;;
30307;SDS011;17114;52.314;8.910;2024-01-15T13:44:50;8.32;;;2.67;;
30307;SDS011;17114;52.314;8.910;2024-01-15T13:47:18;4.93;;;2.30;;
30307;SDS011;17114;52.314;8.910;2024-01-15T13:49:45;9.15;;;2.97;;
30307;SDS011;17114;52.314;8.910;2024-01-15T13:52:12;12.80;;;3.45;;
30307;SDS011;17114;52.314;8.910;2024-01-15T13:54:39;11.48;;;3.05;;
30307;SDS011;17114;52.314;8.910;2024-01-15T13:57:18;9.02;;;2.50;;
30307;SDS011;17114;52.314;8.910;2024-01-15T13:59:46;4.07;;;2.47;;
30307;SDS011;17114;52.314;8.910;2024-01-15T14:02:14;6.53;;;2.55;;
30307;SDS011;17114;52.314;8.910;2024-01-15T14:04:46;7.32;;;2.63;;
30307;SDS011;17114;52.314;8.910;2024-01-15T14:07:16;8.65;;;3.10;;
30307;SDS011;17114;52.314;8.910;2024-01-15T14:09:43;7.38;;;3.25;;
30307;SDS011;17114;52.314;8.910;2024-01-15T14:12:10;7.95;;;2.60;;
30307;SDS011;17114;52.314;8.910;2024-01-15T14:14:38;5.72;;;2.70;;
30307;SDS011;17114;52.314;8.910;2024-01-15T14:17:06;8.32;;;2.85;;
30307;SDS011;17114;52.314;8.910;2024-01-15T14:19:33;5.40;;;2.47;;
30307;SDS011;17114;52.314;8.910;2024-01-15T14:22:01;12.13;;;3.47;;
30307;SDS011;17114;52.314;8.910;2024-01-15T14:24:28;9.25;;;2.92;;
30307;SDS011;17114;52.314;8.910;2024-01-15T14:26:55;6.78;;;3.42;;
30307;SDS011;17114;52.314;8.910;2024-01-15T14:29:23;8.98;;;3.00;;
30307;SDS011;17114;52.314;8.910;2024-01-15T14:31:52;8.65;;;2.63;;
30307;SDS011;17114;52.314;8.910;2024-01-15T14:34:20;8.45;;;2.47;;
30307;SDS011;17114;52.314;8.910;2024-01-15T14:36:50;6.55;;;2.05;;
30307;SDS011;17114;52.314;8.910;2024-01-15T14:39:21;7.20;;;1.92;;
30307;SDS011;17114;52.314;8.910;2024-01-15T14:41:49;4.53;;;1.88;;
30307;SDS011;17114;52.314;8.910;2024-01-15T14:44:15;4.50;;;2.20;;
30307;SDS011;17114;52.314;8.910;2024-01-15T14:46:42;3.83;;;1.80;;
30307;SDS011;17114;52.314;8.910;2024-01-15T14:49:09;4.57;;;1.90;;
30307;SDS011;17114;52.314;8.910;2024-01-15T14:51:37;6.43;;;2.00;;
30307;SDS011;17114;52.314;8.910;2024-01-15T14:54:04;7.88;;;2.20;;
30307;SDS011;17114;52.314;8.910;2024-01-15T14:56:31;3.78;;;1.48;;
30307;SDS011;17114;52.314;8.910;2024-01-15T14:58:58;5.68;;;1.75;;
30307;SDS011;17114;52.314;8.910;2024-01-15T15:01:25;2.50;;;1.55;;
30307;SDS011;17114;52.314;8.910;2024-01-15T15:03:52;3.45;;;1.63;;